createdAt,value
2022-08-21T00:01:42.104Z,100004.78
2022-08-21T00:04:09.909Z,100004.78
2022-08-21T00:06:37.643Z,100009.34
2022-08-21T00:09:06.714Z,100000.41
2022-08-21T00:11:34.569Z,100001.56
2022-08-21T00:14:02.298Z,99998.19
2022-08-21T00:16:29.960Z,99995.84
2022-08-21T00:18:58.008Z,100002.41
2022-08-21T00:21:26.305Z,99996.50
2022-08-21T00:23:53.983Z,99992.94
2022-08-21T00:26:21.589Z,99981.50
2022-08-21T00:28:50.168Z,99989.91
2022-08-21T00:31:17.901Z,99982.16
2022-08-21T00:33:45.522Z,99980.63
2022-08-21T00:36:13.230Z,99973.75
2022-08-21T00:38:40.881Z,99975.56
2022-08-21T00:41:37.152Z,99983.78
2022-08-21T00:43:56.926Z,99979.41
2022-08-21T00:46:24.833Z,99979.41
2022-08-21T00:48:58.913Z,99982.13
2022-08-21T00:51:26.902Z,99976.59
2022-08-21T00:53:55.121Z,99984.50
2022-08-21T00:56:22.841Z,99975.56
2022-08-21T00:58:54.948Z,99976.59
2022-08-21T01:01:22.781Z,99973.22
2022-08-21T01:03:50.543Z,99978.06
2022-08-21T01:06:18.937Z,99973.84
2022-08-21T01:08:47.242Z,99972.47
2022-08-21T01:11:14.869Z,99971.63
2022-08-21T01:13:47.233Z,99969.84
2022-08-21T01:16:14.843Z,99972.50
2022-08-21T01:18:42.810Z,99968.94
2022-08-21T01:21:12.597Z,99973.25
2022-08-21T01:23:41.260Z,99971.72
2022-08-21T01:26:08.916Z,99973.75
2022-08-21T01:28:36.574Z,99963.25
2022-08-21T01:31:04.198Z,99965.25
2022-08-21T01:33:31.879Z,99960.75
2022-08-21T01:35:59.525Z,99962.44
2022-08-21T01:38:27.485Z,99963.66
2022-08-21T01:40:57.592Z,99969.25
2022-08-21T01:43:30.714Z,99972.84
2022-08-21T01:46:07.042Z,99973.03
2022-08-21T01:48:35.027Z,99975.09
2022-08-21T01:51:02.694Z,99975.59
2022-08-21T01:53:33.527Z,99971.63
2022-08-21T01:56:01.408Z,99968.59
2022-08-21T01:58:29.573Z,99969.63
2022-08-21T02:00:57.304Z,99973.69
2022-08-21T02:03:32.720Z,99963.28
2022-08-21T02:06:03.573Z,99969.03
2022-08-21T02:08:31.317Z,99967.88
2022-08-21T02:10:59.270Z,99973.78
2022-08-21T02:13:27.417Z,99960.84
2022-08-21T02:15:55.010Z,99967.56
2022-08-21T02:18:22.696Z,99962.69
2022-08-21T02:20:55.638Z,99966.91
2022-08-21T02:23:27.099Z,99956.00
2022-08-21T02:25:55.244Z,99956.00
2022-08-21T02:28:22.885Z,99945.91
2022-08-21T02:30:50.605Z,99942.88
2022-08-21T02:33:18.502Z,99944.53
2022-08-21T02:35:46.191Z,99956.66
2022-08-21T02:38:13.802Z,99949.91
2022-08-21T02:40:43.764Z,99951.94
2022-08-21T02:43:16.237Z,99953.28
2022-08-21T02:45:44.117Z,99957.97
2022-08-21T02:48:11.758Z,99949.88
2022-08-21T02:50:39.752Z,99951.75
2022-08-21T02:53:07.673Z,99944.50
2022-08-21T02:55:36.121Z,99944.50
2022-08-21T02:58:03.768Z,99940.81
2022-08-21T03:00:31.826Z,99931.91
2022-08-21T03:02:59.653Z,99937.28
2022-08-21T03:05:27.408Z,99938.28
2022-08-21T03:07:55.141Z,99934.22
2022-08-21T03:10:23.237Z,99939.09
2022-08-21T03:12:50.969Z,99931.66
2022-08-21T03:15:18.967Z,99936.88
2022-08-21T03:17:46.642Z,99935.66
2022-08-21T03:20:15.238Z,99941.53
2022-08-21T03:22:45.723Z,99938.81
2022-08-21T03:25:30.864Z,99937.59
2022-08-21T03:28:08.873Z,99942.78
2022-08-21T03:30:40.684Z,99943.41
2022-08-21T03:33:08.441Z,99940.53
2022-08-21T03:35:36.119Z,99940.16
2022-08-21T03:38:04.258Z,99942.75
2022-08-21T03:40:32.716Z,99941.69
2022-08-21T03:43:00.473Z,99942.50
2022-08-21T03:45:28.677Z,99947.63
2022-08-21T03:47:56.939Z,99947.28
2022-08-21T03:50:24.926Z,99937.16
2022-08-21T03:52:52.615Z,99937.78
2022-08-21T03:55:20.205Z,99939.41
2022-08-21T03:57:48.020Z,99943.56
2022-08-21T04:00:16.224Z,99943.34
2022-08-21T04:02:43.934Z,99946.31
2022-08-21T04:05:11.702Z,99951.34
2022-08-21T04:07:39.411Z,99949.06
2022-08-21T04:10:07.517Z,99955.91
2022-08-21T04:12:35.179Z,99957.22
2022-08-21T04:15:03.202Z,99953.84
2022-08-21T04:17:31.159Z,99953.28
2022-08-21T04:20:00.110Z,99950.78
2022-08-21T04:22:27.999Z,99946.69
2022-08-21T04:24:55.705Z,99961.13
2022-08-21T04:27:23.299Z,99959.75
2022-08-21T04:29:50.984Z,99964.13
2022-08-21T04:32:19.259Z,99966.09
2022-08-21T04:34:46.911Z,99964.41
2022-08-21T04:37:16.491Z,99966.25
2022-08-21T04:39:46.904Z,99965.41
2022-08-21T04:42:17.061Z,99971.63
2022-08-21T04:44:44.653Z,99968.25
2022-08-21T04:47:12.261Z,99959.34
2022-08-21T04:49:39.948Z,99962.72
2022-08-21T04:52:07.591Z,99958.34
2022-08-21T04:54:35.671Z,99956.34
2022-08-21T04:57:04.508Z,99958.03
2022-08-21T04:59:32.165Z,99957.75
2022-08-21T05:01:59.866Z,99961.13
2022-08-21T05:04:27.568Z,99972.41
2022-08-21T05:06:55.311Z,99966.72
2022-08-21T05:09:23.423Z,99963.59
2022-08-21T05:11:52.626Z,99959.59
2022-08-21T05:14:20.508Z,99964.34
2022-08-21T05:16:48.275Z,99960.06
2022-08-21T05:19:16.375Z,99966.19
2022-08-21T05:21:44.434Z,99967.94
2022-08-21T05:24:12.572Z,99970.34
2022-08-21T05:26:45.478Z,99968.53
2022-08-21T05:29:14.270Z,99963.09
2022-08-21T05:31:43.065Z,99969.72
2022-08-21T05:34:10.636Z,99969.34
2022-08-21T05:36:38.275Z,99972.09
2022-08-21T05:39:06.261Z,99977.81
2022-08-21T05:41:34.385Z,99970.13
2022-08-21T05:44:02.143Z,99962.97
2022-08-21T05:46:29.848Z,99971.91
2022-08-21T05:48:57.893Z,99966.28
2022-08-21T05:51:25.560Z,99969.50
2022-08-21T05:53:53.183Z,99972.75
2022-08-21T05:56:20.788Z,99965.72
2022-08-21T05:58:48.845Z,99971.13
2022-08-21T06:01:16.948Z,99965.94
2022-08-21T06:03:44.737Z,99962.44
2022-08-21T06:06:12.391Z,99962.28
2022-08-21T06:08:40.508Z,99962.00
2022-08-21T06:11:08.200Z,99960.84
2022-08-21T06:13:35.785Z,99960.84
2022-08-21T06:16:03.535Z,99956.13
2022-08-21T06:18:31.455Z,99964.88
2022-08-21T06:20:59.209Z,99961.38
2022-08-21T06:23:32.927Z,99962.88
2022-08-21T06:26:01.161Z,99954.44
2022-08-21T06:28:30.195Z,99953.47
2022-08-21T06:30:57.909Z,99966.09
2022-08-21T06:33:30.492Z,99956.78
2022-08-21T06:36:01.004Z,99953.03
2022-08-21T06:38:28.729Z,99947.09
2022-08-21T06:40:57.072Z,99951.94
2022-08-21T06:43:39.161Z,99944.78
2022-08-21T06:46:08.205Z,99946.44
2022-08-21T06:48:36.278Z,99939.25
2022-08-21T06:51:03.986Z,99943.22
2022-08-21T06:53:31.656Z,99936.56
2022-08-21T06:55:59.279Z,99937.00
2022-08-21T06:58:27.296Z,99930.81
2022-08-21T07:01:00.101Z,99932.88
2022-08-21T07:03:28.660Z,99940.41
2022-08-21T07:05:56.259Z,99941.50
2022-08-21T07:08:23.902Z,99939.19
2022-08-21T07:10:51.984Z,99938.63
2022-08-21T07:13:19.748Z,99942.66
2022-08-21T07:15:47.352Z,99942.69
2022-08-21T07:18:15.465Z,99947.06
2022-08-21T07:20:43.746Z,99934.34
2022-08-21T07:23:11.385Z,99934.31
2022-08-21T07:25:39.108Z,99930.91
2022-08-21T07:28:06.782Z,99937.03
2022-08-21T07:30:34.858Z,99931.72
2022-08-21T07:33:02.517Z,99937.88
2022-08-21T07:35:32.267Z,99943.75
2022-08-21T07:38:00.006Z,99946.22
2022-08-21T07:40:27.634Z,99941.13
2022-08-21T07:42:55.798Z,99948.63
2022-08-21T07:45:25.368Z,99948.63
2022-08-21T07:47:57.270Z,99942.66
2022-08-21T07:50:25.365Z,99938.13
2022-08-21T07:52:53.543Z,99940.53
2022-08-21T07:55:21.212Z,99935.69
2022-08-21T07:57:49.452Z,99927.00
2022-08-21T08:00:17.134Z,99933.59
2022-08-21T08:02:44.765Z,99928.47
2022-08-21T08:05:13.127Z,99935.91
2022-08-21T08:07:40.822Z,99927.34
2022-08-21T08:10:09.158Z,99939.50
2022-08-21T08:12:36.814Z,99933.66
2022-08-21T08:15:04.679Z,99928.69
2022-08-21T08:17:33.332Z,99929.16
2022-08-21T08:20:02.276Z,99929.59
2022-08-21T08:22:29.930Z,99922.53
2022-08-21T08:24:58.019Z,99921.53
2022-08-21T08:27:25.698Z,99916.34
2022-08-21T08:29:54.230Z,99916.16
2022-08-21T08:32:22.079Z,99921.81
2022-08-21T08:34:49.876Z,99910.56
2022-08-21T08:37:17.531Z,99915.84
2022-08-21T08:39:46.000Z,99917.75
2022-08-21T08:42:33.524Z,99919.06
2022-08-21T08:45:02.245Z,99912.00
2022-08-21T08:47:31.997Z,99918.50
2022-08-21T08:49:59.604Z,99919.13
2022-08-21T08:52:27.588Z,99913.44
2022-08-21T08:54:55.229Z,99925.13
2022-08-21T08:57:23.245Z,99919.06
2022-08-21T08:59:50.960Z,99919.91
2022-08-21T09:02:22.088Z,99927.22
2022-08-21T09:04:49.863Z,99912.19
2022-08-21T09:07:17.551Z,99909.47
2022-08-21T09:09:46.157Z,99912.81
2022-08-21T09:12:13.785Z,99904.47
2022-08-21T09:14:42.250Z,99906.78
2022-08-21T09:17:09.923Z,99907.41
2022-08-21T09:19:38.136Z,99895.72
2022-08-21T09:22:05.842Z,99904.94
2022-08-21T09:24:33.753Z,99902.25
2022-08-21T09:27:01.455Z,99899.97
2022-08-21T09:29:30.886Z,99892.59
2022-08-21T09:31:58.619Z,99894.50
2022-08-21T09:34:26.392Z,99894.09
2022-08-21T09:36:54.073Z,99898.09
2022-08-21T09:39:22.103Z,99892.41
2022-08-21T09:41:50.503Z,99889.47
2022-08-21T09:44:18.260Z,99886.03
2022-08-21T09:46:46.392Z,99881.69
2022-08-21T09:49:16.542Z,99877.28
2022-08-21T09:51:44.239Z,99880.03
2022-08-21T09:54:12.006Z,99877.28
2022-08-21T09:56:57.247Z,99868.31
2022-08-21T09:59:25.517Z,99877.50
2022-08-21T10:01:53.187Z,99875.50
2022-08-21T10:04:20.892Z,99873.44
2022-08-21T10:06:48.788Z,99875.81
2022-08-21T10:09:21.107Z,99872.00
2022-08-21T10:11:49.137Z,99869.59
2022-08-21T10:14:16.782Z,99863.66
2022-08-21T10:16:44.857Z,99869.31
2022-08-21T10:19:12.549Z,99865.66
2022-08-21T10:21:40.236Z,99864.81
2022-08-21T10:24:07.901Z,99863.13
2022-08-21T10:26:39.186Z,99860.69
2022-08-21T10:29:06.888Z,99866.25
2022-08-21T10:31:34.591Z,99858.13
2022-08-21T10:34:02.347Z,99847.50
2022-08-21T10:36:32.210Z,99853.47
2022-08-21T10:39:25.239Z,99855.06
2022-08-21T10:41:48.049Z,99859.94
2022-08-21T10:44:15.659Z,99852.31
2022-08-21T10:46:43.720Z,99854.84
2022-08-21T10:49:11.387Z,99857.72
2022-08-21T10:51:39.021Z,99854.84
2022-08-21T10:54:06.718Z,99840.06
2022-08-21T10:56:34.924Z,99850.13
2022-08-21T10:59:02.547Z,99836.81
2022-08-21T11:01:30.450Z,99843.19
2022-08-21T11:03:58.138Z,99838.81
2022-08-21T11:06:28.239Z,99829.75
2022-08-21T11:08:57.848Z,99836.91
2022-08-21T11:11:25.454Z,99831.03
2022-08-21T11:13:57.489Z,99837.91
2022-08-21T11:16:25.278Z,99828.38
2022-08-21T11:18:52.979Z,99821.78
2022-08-21T11:21:20.727Z,99821.78
2022-08-21T11:23:48.445Z,99821.19
2022-08-21T11:26:16.908Z,99828.84
2022-08-21T11:28:44.775Z,99830.44
2022-08-21T11:31:13.550Z,99837.03
2022-08-21T11:33:42.841Z,99835.50
2022-08-21T11:36:10.508Z,99830.97
2022-08-21T11:38:39.917Z,99833.47
2022-08-21T11:41:08.216Z,99827.59
2022-08-21T11:43:35.927Z,99827.00
2022-08-21T11:46:03.647Z,99827.63
2022-08-21T11:48:31.340Z,99826.22
2022-08-21T11:50:59.347Z,99826.69
2022-08-21T11:53:27.104Z,99831.13
2022-08-21T11:55:55.354Z,99825.56
2022-08-21T11:58:23.078Z,99824.69
2022-08-21T12:00:51.264Z,99827.22
2022-08-21T12:03:18.933Z,99830.78
2022-08-21T12:05:46.616Z,99835.34
2022-08-21T12:08:14.238Z,99838.53
2022-08-21T12:10:42.401Z,99843.34
2022-08-21T12:13:11.167Z,99842.09
2022-08-21T12:15:38.787Z,99840.22
2022-08-21T12:18:06.609Z,99836.34
2022-08-21T12:20:34.415Z,99831.94
2022-08-21T12:23:02.484Z,99835.22
2022-08-21T12:25:30.257Z,99839.66
2022-08-21T12:27:57.938Z,99829.16
2022-08-21T12:30:27.486Z,99825.00
2022-08-21T12:32:55.299Z,99833.03
2022-08-21T12:35:25.020Z,99827.47
2022-08-21T12:37:53.315Z,99829.31
2022-08-21T12:40:21.535Z,99832.69
2022-08-21T12:43:00.589Z,99838.22
2022-08-21T12:45:28.447Z,99832.19
2022-08-21T12:47:56.161Z,99829.44
2022-08-21T12:50:24.144Z,99828.56
2022-08-21T12:52:52.217Z,99836.69
2022-08-21T12:55:22.314Z,99826.19
2022-08-21T12:57:50.018Z,99821.78
2022-08-21T13:00:19.374Z,99821.50
2022-08-21T13:02:48.938Z,99815.84
2022-08-21T13:05:17.222Z,99818.59
2022-08-21T13:07:44.950Z,99818.72
2022-08-21T13:10:13.290Z,99817.25
2022-08-21T13:12:41.042Z,99814.66
2022-08-21T13:15:09.435Z,99823.69
2022-08-21T13:17:38.655Z,99828.03
2022-08-21T13:20:07.248Z,99816.47
2022-08-21T13:22:38.051Z,99817.59
2022-08-21T13:25:06.913Z,99815.00
2022-08-21T13:27:35.362Z,99820.00
2022-08-21T13:30:03.615Z,99819.16
2022-08-21T13:32:31.340Z,99823.19
2022-08-21T13:34:59.053Z,99821.72
2022-08-21T13:37:27.216Z,99818.97
2022-08-21T13:39:54.891Z,99814.13
2022-08-21T13:42:25.203Z,99808.72
2022-08-21T13:44:52.891Z,99816.16
2022-08-21T13:47:22.013Z,99816.94
2022-08-21T13:49:49.668Z,99817.56
2022-08-21T13:52:17.446Z,99813.72
2022-08-21T13:54:45.838Z,99816.84
2022-08-21T13:57:14.120Z,99815.72
2022-08-21T13:59:41.810Z,99810.63
2022-08-21T14:02:09.589Z,99811.19
2022-08-21T14:04:37.255Z,99819.19
2022-08-21T14:07:04.974Z,99812.84
2022-08-21T14:09:33.074Z,99816.78
2022-08-21T14:12:00.750Z,99818.59
2022-08-21T14:14:28.475Z,99803.72
2022-08-21T14:16:56.482Z,99799.38
2022-08-21T14:19:24.193Z,99804.97
2022-08-21T14:21:52.097Z,99802.50
2022-08-21T14:24:19.975Z,99801.25
2022-08-21T14:26:48.243Z,99800.25
2022-08-21T14:29:16.015Z,99800.31
2022-08-21T14:31:44.247Z,99795.03
2022-08-21T14:34:19.163Z,99799.22
2022-08-21T14:36:48.064Z,99807.25
2022-08-21T14:39:17.429Z,99809.19
2022-08-21T14:41:47.146Z,99806.13
2022-08-21T14:44:14.830Z,99810.03
2022-08-21T14:46:56.023Z,99799.38
2022-08-21T14:49:24.964Z,99810.56
2022-08-21T14:51:58.094Z,99803.41
2022-08-21T14:54:30.543Z,99804.47
2022-08-21T14:57:00.016Z,99797.16
2022-08-21T14:59:28.113Z,99800.84
2022-08-21T15:01:57.329Z,99793.44
2022-08-21T15:04:25.333Z,99800.44
2022-08-21T15:06:52.969Z,99795.22
2022-08-21T15:09:21.086Z,99792.28
2022-08-21T15:11:48.738Z,99795.31
2022-08-21T15:14:16.433Z,99803.44
2022-08-21T15:16:44.448Z,99792.63
2022-08-21T15:19:12.471Z,99795.84
2022-08-21T15:21:40.211Z,99800.47
2022-08-21T15:24:07.901Z,99802.22
2022-08-21T15:26:35.940Z,99808.50
2022-08-21T15:29:03.694Z,99803.53
2022-08-21T15:31:34.486Z,99802.44
2022-08-21T15:34:02.262Z,99799.78
2022-08-21T15:36:30.231Z,99807.31
2022-08-21T15:38:58.304Z,99807.44
2022-08-21T15:41:26.028Z,99809.00
2022-08-21T15:43:53.727Z,99800.16
2022-08-21T15:46:21.817Z,99808.88
2022-08-21T15:48:49.531Z,99798.63
2022-08-21T15:51:17.299Z,99803.38
2022-08-21T15:53:44.983Z,99799.69
2022-08-21T15:56:12.905Z,99797.31
2022-08-21T15:58:40.629Z,99791.91
2022-08-21T16:01:08.373Z,99795.34
2022-08-21T16:03:36.006Z,99780.72
2022-08-21T16:06:03.699Z,99785.88
2022-08-21T16:08:31.346Z,99781.59
2022-08-21T16:10:59.376Z,99777.97
2022-08-21T16:13:27.066Z,99786.53
2022-08-21T16:15:54.792Z,99787.00
2022-08-21T16:18:23.301Z,99784.25
2022-08-21T16:20:51.471Z,99790.44
2022-08-21T16:23:19.175Z,99781.84
2022-08-21T16:25:46.941Z,99789.03
2022-08-21T16:28:14.678Z,99785.53
2022-08-21T16:30:42.722Z,99787.13
2022-08-21T16:33:10.468Z,99788.03
2022-08-21T16:35:38.165Z,99788.69
2022-08-21T16:38:06.119Z,99786.66
2022-08-21T16:40:34.402Z,99798.22
2022-08-21T16:43:02.036Z,99782.91
2022-08-21T16:45:33.027Z,99787.91
2022-08-21T16:48:01.469Z,99787.03
2022-08-21T16:50:29.532Z,99779.75
2022-08-21T16:52:57.589Z,99779.38
2022-08-21T16:55:25.391Z,99782.53
2022-08-21T16:57:53.536Z,99776.81
2022-08-21T17:00:21.248Z,99781.38
2022-08-21T17:02:49.972Z,99780.13
2022-08-21T17:05:17.624Z,99783.50
2022-08-21T17:07:45.618Z,99787.69
2022-08-21T17:10:13.512Z,99781.75
2022-08-21T17:12:41.175Z,99790.06
2022-08-21T17:15:10.485Z,99787.25
2022-08-21T17:17:38.119Z,99794.09
2022-08-21T17:20:06.008Z,99787.47
2022-08-21T17:22:34.027Z,99791.78
2022-08-21T17:25:01.700Z,99796.06
2022-08-21T17:27:29.328Z,99795.72
2022-08-21T17:29:57.548Z,99792.06
2022-08-21T17:32:25.351Z,99794.66
2022-08-21T17:34:53.113Z,99797.25
2022-08-21T17:37:21.153Z,99796.09
2022-08-21T17:39:49.355Z,99807.47
2022-08-21T17:42:17.056Z,99802.91
2022-08-21T17:44:44.777Z,99804.19
2022-08-21T17:47:12.958Z,99803.81
2022-08-21T17:49:40.978Z,99801.56
2022-08-21T17:52:08.644Z,99798.25
2022-08-21T17:54:36.792Z,99795.13
2022-08-21T17:57:04.473Z,99793.94
2022-08-21T17:59:32.556Z,99811.53
2022-08-21T18:02:01.829Z,99800.03
2022-08-21T18:04:29.824Z,99804.06
2022-08-21T18:06:57.498Z,99804.47
2022-08-21T18:09:28.311Z,99816.41
2022-08-21T18:11:55.963Z,99816.63
2022-08-21T18:14:23.728Z,99813.31
2022-08-21T18:16:51.410Z,99823.38
2022-08-21T18:19:21.530Z,99813.91
2022-08-21T18:21:49.246Z,99816.63
2022-08-21T18:24:17.832Z,99814.09
2022-08-21T18:26:45.532Z,99823.50
2022-08-21T18:29:13.290Z,99824.13
2022-08-21T18:31:41.269Z,99821.63
2022-08-21T18:34:09.026Z,99828.06
2022-08-21T18:36:36.782Z,99824.69
2022-08-21T18:39:34.422Z,99824.50
2022-08-21T18:41:53.651Z,99829.84
2022-08-21T18:44:21.705Z,99823.59
2022-08-21T18:46:49.772Z,99819.78
2022-08-21T18:49:17.513Z,99821.44
2022-08-21T18:51:46.164Z,99818.50
2022-08-21T18:54:14.949Z,99826.63
2022-08-21T18:56:43.285Z,99827.44
2022-08-21T18:59:11.095Z,99842.84
2022-08-21T19:01:38.787Z,99838.22
2022-08-21T19:04:08.952Z,99836.34
2022-08-21T19:06:37.887Z,99839.22
2022-08-21T19:09:06.176Z,99842.06
2022-08-21T19:11:34.303Z,99839.50
2022-08-21T19:14:01.965Z,99842.34
2022-08-21T19:16:29.739Z,99839.34
2022-08-21T19:18:58.169Z,99842.63
2022-08-21T19:21:28.187Z,99845.84
2022-08-21T19:23:56.933Z,99846.22
2022-08-21T19:26:25.853Z,99851.50
2022-08-21T19:28:53.970Z,99850.97
2022-08-21T19:34:09.652Z,99849.03
2022-08-21T19:36:37.538Z,99855.78
2022-08-21T19:39:08.175Z,99852.56
2022-08-21T19:41:36.160Z,99858.91
2022-08-21T19:44:03.846Z,99853.59
2022-08-21T19:46:31.486Z,99851.19
2022-08-21T19:48:59.642Z,99842.97
2022-08-21T19:51:27.598Z,99850.81
2022-08-21T19:53:57.255Z,99854.28
2022-08-21T19:56:25.067Z,99859.13
2022-08-21T19:58:53.260Z,99861.28
2022-08-21T20:01:20.903Z,99867.16
2022-08-21T20:03:54.539Z,99865.56
2022-08-21T20:06:36.422Z,99867.69
2022-08-21T20:09:04.495Z,99860.69
2022-08-21T20:11:36.113Z,99865.13
2022-08-21T20:14:03.957Z,99873.31
2022-08-21T20:16:31.697Z,99869.00
2022-08-21T20:18:59.933Z,99865.69
2022-08-21T20:21:27.932Z,99871.00
2022-08-21T20:23:56.455Z,99870.03
2022-08-21T20:26:24.149Z,99869.09
2022-08-21T20:28:52.985Z,99871.47
2022-08-21T20:31:22.783Z,99876.59
2022-08-21T20:33:50.568Z,99868.66
2022-08-21T20:36:18.339Z,99868.00
2022-08-21T20:38:48.274Z,99874.44
2022-08-21T20:41:34.131Z,99866.69
2022-08-21T20:44:01.825Z,99872.28
2022-08-21T20:46:33.195Z,99874.13
2022-08-21T20:49:02.166Z,99875.16
2022-08-21T20:51:29.889Z,99876.19
2022-08-21T20:53:57.705Z,99871.97
2022-08-21T20:56:26.070Z,99870.47
2022-08-21T20:58:57.650Z,99874.00
2022-08-21T21:01:26.024Z,99877.72
2022-08-21T21:03:55.044Z,99877.72
2022-08-21T21:06:23.744Z,99872.84
2022-08-21T21:08:53.694Z,99874.88
2022-08-21T21:11:21.483Z,99875.22
2022-08-21T21:13:49.375Z,99877.59
2022-08-21T21:16:17.173Z,99871.56
2022-08-21T21:18:46.290Z,99865.84
2022-08-21T21:21:13.987Z,99862.84
2022-08-21T21:23:41.731Z,99868.94
2022-08-21T21:26:14.416Z,99870.50
2022-08-21T21:28:43.400Z,99874.06
2022-08-21T21:31:11.147Z,99880.34
2022-08-21T21:33:40.402Z,99874.47
2022-08-21T21:36:08.039Z,99872.59
2022-08-21T21:38:38.138Z,99874.25
2022-08-21T21:41:19.622Z,99868.72
2022-08-21T21:43:47.764Z,99873.94
2022-08-21T21:46:16.373Z,99858.25
2022-08-21T21:48:44.502Z,99864.47
2022-08-21T21:51:12.863Z,99866.13
2022-08-21T21:53:40.527Z,99863.44
2022-08-21T21:56:08.418Z,99867.00
2022-08-21T21:58:36.150Z,99867.66
2022-08-21T22:01:03.844Z,99872.38
2022-08-21T22:03:31.735Z,99873.94
2022-08-21T22:06:01.682Z,99872.94
2022-08-21T22:08:30.216Z,99881.09
2022-08-21T22:10:58.818Z,99880.91
2022-08-21T22:13:26.906Z,99877.91
2022-08-21T22:15:54.692Z,99869.13
2022-08-21T22:18:22.417Z,99881.44
2022-08-21T22:20:51.116Z,99872.16
2022-08-21T22:23:18.863Z,99875.19
2022-08-21T22:25:46.497Z,99870.09
2022-08-21T22:28:16.273Z,99880.56
2022-08-21T22:30:46.256Z,99884.56
2022-08-21T22:33:14.741Z,99881.88
2022-08-21T22:35:42.493Z,99880.03
2022-08-21T22:38:11.481Z,99885.41
2022-08-21T22:40:39.585Z,99882.72
2022-08-21T22:43:07.642Z,99887.09
2022-08-21T22:45:35.421Z,99886.25
2022-08-21T22:48:03.121Z,99886.25
2022-08-21T22:50:31.125Z,99892.34
2022-08-21T22:52:59.036Z,99887.75
2022-08-21T22:55:26.847Z,99889.78
2022-08-21T22:57:56.475Z,99888.44
2022-08-21T23:00:25.491Z,99887.94
2022-08-21T23:02:53.349Z,99888.47
2022-08-21T23:05:24.882Z,99885.28
2022-08-21T23:07:52.796Z,99880.41
2022-08-21T23:10:22.466Z,99883.47
2022-08-21T23:12:55.309Z,99887.03
2022-08-21T23:15:22.930Z,99886.06
2022-08-21T23:17:50.778Z,99877.59
2022-08-21T23:20:18.946Z,99872.53
2022-08-21T23:22:47.406Z,99875.59
2022-08-21T23:25:15.189Z,99878.44
2022-08-21T23:27:44.865Z,99873.56
2022-08-21T23:30:12.947Z,99869.56
2022-08-21T23:32:40.816Z,99865.66
2022-08-21T23:35:14.693Z,99871.56
2022-08-21T23:37:51.678Z,99874.63
2022-08-21T23:40:19.994Z,99882.03
2022-08-21T23:42:47.999Z,99881.34
2022-08-21T23:45:17.791Z,99889.78
2022-08-21T23:47:45.496Z,99878.50
2022-08-21T23:50:19.754Z,99890.66
2022-08-21T23:52:48.356Z,99883.53
2022-08-21T23:55:16.108Z,99881.88
2022-08-21T23:57:43.691Z,99889.13
